Time;durP1;ratioP1;P1;durP2;ratioP2;P2;SDS_P1;SDS_P2;PMS_P1;PMS_P2;Temp;Humidity;BMP_temperature;BMP_pressure;BME280_temperature;BME280_humidity;BME280_pressure;Samples;Min_cycle;Max_cycle;Signal;HPM_P1;HPM_P2
2022/01/24 00:01:58;;;;;;;26.85;13.43;;;4.90;99.90;;;;;;5066667;28;20064;-91
2022/01/24 00:04:27;;;;;;;29.55;14.00;;;5.80;99.90;;;;;;5039804;28;20037;-91
2022/01/24 00:06:52;;;;;;;22.67;11.40;;;4.90;99.90;;;;;;5039796;28;20192;-90
2022/01/24 00:09:19;;;;;;;26.17;13.23;;;5.90;99.90;;;;;;5057187;28;20118;-91
2022/01/24 00:17:05;;;;;;;27.05;12.90;;;5.00;99.90;;;;;;5072986;28;20044;-91
2022/01/24 00:28:12;;;;;;;24.63;12.77;;;4.90;99.90;;;;;;5053778;28;20076;-91
2022/01/24 00:30:39;;;;;;;28.85;14.10;;;5.10;99.90;;;;;;5035815;28;20087;-91
2022/01/24 00:33:05;;;;;;;27.90;14.15;;;5.00;99.90;;;;;;5036913;28;20040;-91
2022/01/24 00:35:31;;;;;;;26.73;12.55;;;4.80;99.90;;;;;;5037845;28;20047;-91
2022/01/24 00:38:01;;;;;;;22.83;11.80;;;5.60;99.90;;;;;;5072969;28;20041;-91
2022/01/24 00:40:38;;;;;;;25.30;13.02;;;5.50;99.90;;;;;;5072701;28;20047;-90
2022/01/24 00:43:11;;;;;;;22.48;10.90;;;4.70;99.90;;;;;;5068943;28;20056;-90
2022/01/24 00:46:00;;;;;;;23.30;12.30;;;4.80;99.90;;;;;;5036884;28;20182;-91
2022/01/24 00:56:45;;;;;;;19.20;9.50;;;4.70;99.90;;;;;;5018490;28;20048;-91
2022/01/24 00:59:11;;;;;;;17.33;9.73;;;4.80;99.90;;;;;;5053561;28;20038;-91
2022/01/24 01:01:37;;;;;;;19.63;9.85;;;4.80;99.90;;;;;;5038726;28;20476;-91
2022/01/24 01:04:02;;;;;;;19.45;9.45;;;4.80;99.90;;;;;;5039740;28;20127;-91
2022/01/24 01:06:28;;;;;;;20.70;9.50;;;4.80;99.90;;;;;;5038918;28;20040;-90
2022/01/24 01:19:50;;;;;;;17.73;8.98;;;5.50;99.90;;;;;;5052590;28;20049;-91
2022/01/24 01:22:16;;;;;;;16.98;8.25;;;5.40;99.90;;;;;;5023250;28;20049;-90
2022/01/24 01:24:49;;;;;;;16.95;9.18;;;5.00;99.90;;;;;;5039025;28;20040;-91
2022/01/24 01:27:19;;;;;;;18.17;8.75;;;4.80;99.90;;;;;;5040662;28;20044;-91
2022/01/24 01:40:39;;;;;;;17.13;8.38;;;5.10;99.90;;;;;;5044372;28;20063;-91
2022/01/24 01:56:29;;;;;;;19.73;9.43;;;4.70;99.90;;;;;;5052444;28;20493;-91
2022/01/24 01:58:55;;;;;;;19.70;9.57;;;4.70;99.90;;;;;;5035934;28;20135;-91
2022/01/24 02:01:23;;;;;;;18.10;9.00;;;4.90;99.90;;;;;;5018656;28;20041;-91
2022/01/24 02:03:51;;;;;;;17.77;8.63;;;5.00;99.90;;;;;;5051847;28;20040;-91
2022/01/24 02:06:19;;;;;;;16.75;8.85;;;4.60;99.90;;;;;;5019356;28;20049;-90
2022/01/24 02:08:45;;;;;;;18.00;9.25;;;4.70;99.90;;;;;;5019612;28;20044;-91
2022/01/24 02:11:15;;;;;;;16.25;9.13;;;4.80;99.90;;;;;;5035416;28;20047;-91
2022/01/24 02:13:41;;;;;;;15.90;8.48;;;5.20;99.90;;;;;;5035027;28;20395;-91
2022/01/24 02:16:16;;;;;;;16.08;9.18;;;4.80;99.90;;;;;;5035494;28;20049;-91
2022/01/24 02:18:54;;;;;;;19.25;8.90;;;5.40;99.90;;;;;;5066848;28;20044;-91
2022/01/24 02:21:43;;;;;;;18.35;9.18;;;5.20;99.90;;;;;;5052299;28;20211;-91
2022/01/24 02:24:12;;;;;;;15.45;9.55;;;4.80;99.90;;;;;;5035431;28;20464;-91
2022/01/24 02:26:38;;;;;;;16.70;9.57;;;5.90;99.90;;;;;;5051679;28;20063;-91
2022/01/24 02:29:16;;;;;;;17.33;8.75;;;5.60;99.90;;;;;;5048802;28;20262;-91
2022/01/24 02:34:50;;;;;;;17.00;7.63;;;4.70;99.90;;;;;;5072331;28;20498;-91
2022/01/24 02:37:18;;;;;;;16.80;8.38;;;4.70;99.90;;;;;;5065722;28;20045;-91
2022/01/24 02:39:59;;;;;;;17.15;9.18;;;4.70;99.90;;;;;;5017674;28;20052;-91
2022/01/24 02:51:15;;;;;;;18.80;9.55;;;5.10;99.90;;;;;;5056737;28;20045;-91
2022/01/24 02:53:41;;;;;;;20.02;10.32;;;4.70;99.90;;;;;;5038549;28;20056;-91
2022/01/24 02:56:07;;;;;;;19.50;10.55;;;5.30;99.90;;;;;;5022243;28;20040;-91
2022/01/24 02:58:34;;;;;;;22.98;11.00;;;5.30;99.90;;;;;;5056446;28;20120;-91
2022/01/24 03:01:00;;;;;;;23.08;10.43;;;5.40;99.90;;;;;;5055120;28;20162;-91
2022/01/24 03:03:25;;;;;;;;;;;4.70;99.90;;;;;;5039370;28;20056;-91
2022/01/24 03:05:52;;;;;;;17.65;9.48;;;4.70;99.90;;;;;;5058058;28;19920;-91
2022/01/24 03:08:21;;;;;;;18.63;9.98;;;4.70;99.90;;;;;;5058772;28;20110;-91
2022/01/24 03:10:47;;;;;;;18.73;10.23;;;4.60;99.90;;;;;;5038344;28;20056;-91
2022/01/24 03:13:32;;;;;;;23.75;11.63;;;5.20;99.90;;;;;;5038746;28;20048;-91
2022/01/24 03:16:03;;;;;;;26.98;13.15;;;5.20;99.90;;;;;;5054561;28;20541;-91
2022/01/24 03:18:29;;;;;;;30.92;15.27;;;5.80;99.90;;;;;;5055143;28;20045;-91
2022/01/24 03:20:57;;;;;;;29.10;13.80;;;5.90;99.90;;;;;;5069726;28;20055;-90
2022/01/24 03:23:24;;;;;;;30.25;14.02;;;4.70;99.90;;;;;;5058516;28;20062;-89
2022/01/24 03:25:50;;;;;;;28.17;14.38;;;4.80;99.90;;;;;;5074537;28;20041;-91
2022/01/24 03:28:16;;;;;;;26.27;13.30;;;5.60;99.90;;;;;;5058115;28;20426;-91
2022/01/24 03:30:45;;;;;;;31.20;15.02;;;5.70;99.90;;;;;;5057217;28;20055;-91
2022/01/24 03:33:11;;;;;;;29.02;14.43;;;4.70;99.90;;;;;;5074508;28;20532;-90
2022/01/24 03:35:42;;;;;;;32.65;15.07;;;6.00;99.90;;;;;;5058069;28;20044;-91
2022/01/24 03:38:08;;;;;;;29.20;15.15;;;4.70;99.90;;;;;;5058079;28;20041;-91
2022/01/24 03:40:34;;;;;;;28.80;14.95;;;5.80;99.90;;;;;;5074403;28;20055;-90
2022/01/24 03:43:00;;;;;;;30.67;15.02;;;3.80;99.90;;;;;;5074158;28;20185;-91
2022/01/24 03:45:42;;;;;;;30.27;15.23;;;4.60;99.90;;;;;;5074116;28;20131;-91
2022/01/24 03:48:26;;;;;;;29.88;15.52;;;4.60;99.90;;;;;;5074368;28;20048;-91
2022/01/24 03:50:53;;;;;;;29.60;15.98;;;5.60;99.90;;;;;;5043429;28;20628;-91
2022/01/24 03:53:19;;;;;;;31.98;16.10;;;5.10;99.90;;;;;;5057933;28;20037;-90
2022/01/24 03:55:45;;;;;;;34.28;15.77;;;5.20;99.90;;;;;;5040173;28;20182;-91
2022/01/24 03:58:11;;;;;;;29.30;15.35;;;4.60;99.90;;;;;;5074561;28;20048;-90
2022/01/24 04:00:36;;;;;;;33.05;15.07;;;5.40;99.90;;;;;;5040251;28;20443;-92
2022/01/24 04:03:02;;;;;;;33.33;16.17;;;4.90;99.90;;;;;;5057598;28;20047;-91
2022/01/24 04:05:28;;;;;;;32.85;17.10;;;4.70;99.90;;;;;;5054026;28;20059;-91
2022/01/24 04:07:53;;;;;;;35.92;17.98;;;4.60;99.90;;;;;;5025147;28;20048;-91
2022/01/24 04:10:21;;;;;;;34.63;17.60;;;4.70;99.90;;;;;;5014047;28;20045;-91
2022/01/24 04:13:07;;;;;;;40.58;18.08;;;4.70;99.90;;;;;;5037307;28;20048;-91
2022/01/24 04:15:43;;;;;;;35.38;17.30;;;5.70;99.90;;;;;;5053675;28;20087;-91
2022/01/24 04:18:35;;;;;;;39.03;17.70;;;5.50;99.90;;;;;;5054098;28;20044;-91
2022/01/24 04:23:55;;;;;;;33.85;16.08;;;5.50;99.90;;;;;;5055220;28;20044;-90
2022/01/24 04:26:21;;;;;;;32.03;15.90;;;5.90;99.90;;;;;;5057238;28;20459;-91
2022/01/24 04:28:52;;;;;;;36.17;17.05;;;5.20;99.90;;;;;;5056736;28;20045;-91
2022/01/24 04:31:23;;;;;;;39.53;17.85;;;4.60;99.90;;;;;;5049823;28;20063;-91
2022/01/24 04:33:49;;;;;;;33.35;14.43;;;4.70;99.90;;;;;;5073114;28;20056;-91
2022/01/24 04:36:20;;;;;;;40.05;18.88;;;5.60;99.90;;;;;;5072893;28;20040;-91
2022/01/24 04:38:49;;;;;;;42.45;20.83;;;5.50;99.90;;;;;;5043956;28;20048;-91
2022/01/24 04:41:25;;;;;;;;;;;4.70;99.90;;;;;;5037256;28;20087;-90
2022/01/24 04:43:57;;;;;;;44.58;20.77;;;4.70;99.90;;;;;;5036729;28;19916;-91
2022/01/24 04:52:17;;;;;;;43.85;20.63;;;5.00;99.90;;;;;;5053313;28;19921;-91
2022/01/24 04:56:55;;;;;;;50.20;21.98;;;5.70;99.90;;;;;;5052576;28;20040;-91
2022/01/24 04:59:21;;;;;;;47.88;22.95;;;5.50;99.90;;;;;;5036229;28;20103;-91
2022/01/24 05:01:47;;;;;;;51.75;23.30;;;4.10;99.90;;;;;;5052399;28;20048;-91
2022/01/24 05:04:15;;;;;;;55.63;23.30;;;5.60;99.90;;;;;;5036279;28;20033;-90
2022/01/24 05:06:45;;;;;;;55.20;24.05;;;4.30;99.90;;;;;;5036157;28;20041;-91
2022/01/24 05:09:14;;;;;;;52.30;23.13;;;4.60;99.90;;;;;;5037254;28;20123;-91
2022/01/24 05:25:12;;;;;;;52.70;23.25;;;4.60;99.90;;;;;;5072576;28;20044;-91
2022/01/24 05:27:37;;;;;;;59.63;26.67;;;5.10;99.90;;;;;;5055960;28;20044;-91
2022/01/24 05:30:04;;;;;;;58.67;26.50;;;5.40;99.90;;;;;;5056686;28;20059;-91
2022/01/24 05:32:30;;;;;;;61.13;25.90;;;4.60;99.90;;;;;;5040926;28;20050;-90
2022/01/24 05:34:56;;;;;;;60.13;27.13;;;5.60;99.90;;;;;;5066158;28;20040;-90
2022/01/24 05:37:22;;;;;;;59.90;25.17;;;5.50;99.90;;;;;;5023162;28;20051;-91
2022/01/24 05:39:47;;;;;;;57.22;26.02;;;4.80;99.90;;;;;;5037315;28;20036;-91
2022/01/24 05:42:17;;;;;;;60.47;25.85;;;4.90;99.90;;;;;;5055877;28;20043;-91
2022/01/24 05:44:52;;;;;;;57.67;25.88;;;5.30;99.90;;;;;;5054547;28;20040;-90
2022/01/24 05:47:18;;;;;;;64.85;26.73;;;4.60;99.90;;;;;;5040034;28;20482;-91
2022/01/24 05:49:47;;;;;;;56.28;25.98;;;4.60;99.90;;;;;;5053571;28;20098;-91
2022/01/24 05:52:13;;;;;;;59.72;26.10;;;5.50;99.90;;;;;;5075990;28;20119;-91
2022/01/24 05:54:49;;;;;;;57.17;24.90;;;4.00;99.90;;;;;;5059228;28;20127;-91
2022/01/24 05:57:17;;;;;;;58.47;24.38;;;4.50;99.90;;;;;;5057187;28;20131;-90
2022/01/24 05:59:46;;;;;;;61.70;26.23;;;5.20;99.90;;;;;;5038672;28;20136;-91
2022/01/24 06:02:14;;;;;;;62.30;26.20;;;5.00;99.90;;;;;;5055537;28;20044;-91
2022/01/24 06:04:45;;;;;;;63.55;28.48;;;4.50;99.90;;;;;;5055880;28;20051;-91
2022/01/24 06:07:11;;;;;;;62.20;25.58;;;5.40;99.90;;;;;;5057269;28;20082;-91
2022/01/24 06:09:40;;;;;;;56.83;24.90;;;4.50;99.90;;;;;;5075580;28;20075;-92
2022/01/24 06:12:09;;;;;;;59.58;26.23;;;5.30;99.90;;;;;;5058498;28;20081;-90
2022/01/24 06:14:37;;;;;;;55.75;25.08;;;4.50;99.90;;;;;;5075036;28;20097;-91
2022/01/24 06:17:10;;;;;;;65.30;26.95;;;4.50;99.90;;;;;;5054480;28;20036;-91
2022/01/24 06:19:36;;;;;;;56.90;25.85;;;4.50;99.90;;;;;;5057624;28;20135;-91
2022/01/24 06:22:15;;;;;;;;;;;;;;;;;;;;;
2022/01/24 06:24:45;;;;;;;63.42;27.90;;;4.50;99.90;;;;;;5075035;28;20045;-91
2022/01/24 06:27:11;;;;;;;63.97;25.88;;;5.60;99.90;;;;;;5075667;28;20040;-91
2022/01/24 06:29:37;;;;;;;62.95;26.38;;;4.50;99.90;;;;;;5062311;28;20040;-91
2022/01/24 06:32:03;;;;;;;63.97;25.77;;;5.40;99.90;;;;;;5061041;28;20048;-91
2022/01/24 06:34:32;;;;;;;65.30;27.10;;;4.10;99.90;;;;;;5062784;28;20044;-92
2022/01/24 06:36:57;;;;;;;68.35;27.35;;;5.40;99.90;;;;;;5062282;28;20040;-91
2022/01/24 06:39:26;;;;;;;57.60;25.73;;;4.40;99.90;;;;;;5062426;28;20135;-91
2022/01/24 06:42:06;;;;;;;58.17;24.58;;;5.50;99.90;;;;;;5078522;28;20044;-91
2022/01/24 06:44:42;;;;;;;61.75;25.40;;;5.20;99.90;;;;;;5058971;28;20036;-91
2022/01/24 06:47:08;;;;;;;68.78;27.10;;;5.40;99.90;;;;;;5075104;28;20429;-91
2022/01/24 06:49:35;;;;;;;68.63;27.02;;;4.40;99.90;;;;;;5059319;28;20040;-91
2022/01/24 06:52:01;;;;;;;66.68;27.10;;;5.10;99.90;;;;;;5062054;28;20178;-91
2022/01/24 06:54:30;;;;;;;63.80;27.33;;;4.40;99.90;;;;;;5055092;28;20032;-92
2022/01/24 06:56:58;;;;;;;68.60;27.58;;;4.40;99.90;;;;;;5059796;28;20379;-91
2022/01/24 06:59:24;;;;;;;65.88;28.23;;;4.40;99.90;;;;;;5042238;28;20040;-91
2022/01/24 07:01:59;;;;;;;65.13;26.58;;;4.50;99.90;;;;;;5061464;28;20500;-90
2022/01/24 07:04:31;;;;;;;70.45;28.00;;;4.40;99.90;;;;;;5078719;28;20036;-91
2022/01/24 07:06:59;;;;;;;71.40;27.90;;;4.40;99.90;;;;;;5078349;28;20502;-91
2022/01/24 07:09:25;;;;;;;66.13;26.92;;;4.40;99.90;;;;;;5040659;28;20098;-91
2022/01/24 07:11:53;;;;;;;66.03;25.90;;;4.40;99.90;;;;;;5078186;28;20039;-89
2022/01/24 07:14:19;;;;;;;60.65;25.98;;;4.90;99.90;;;;;;5066146;28;20075;-91
2022/01/24 07:19:26;;;;;;;69.03;25.73;;;4.40;99.90;;;;;;5078582;28;20573;-89
2022/01/24 07:21:53;;;;;;;63.00;25.88;;;4.70;99.90;;;;;;5069471;28;20040;-90
2022/01/24 07:24:19;;;;;;;66.47;27.67;;;5.60;99.90;;;;;;5042511;28;20063;-89
2022/01/24 07:26:45;;;;;;;67.05;27.70;;;5.50;99.90;;;;;;5058142;28;20471;-88
2022/01/24 07:29:13;;;;;;;67.57;28.48;;;4.40;99.90;;;;;;5040908;28;20132;-90
2022/01/24 07:31:39;;;;;;;65.28;26.13;;;5.00;99.90;;;;;;5039503;28;20048;-91
2022/01/24 07:34:05;;;;;;;68.75;25.83;;;5.20;99.90;;;;;;5043085;28;20044;-90
2022/01/24 07:36:31;;;;;;;70.18;28.55;;;4.60;99.90;;;;;;5041344;28;20375;-91
2022/01/24 07:38:57;;;;;;;62.60;26.40;;;;;;;;;;5057654;28;20136;-90
2022/01/24 07:41:26;;;;;;;;;;;4.40;99.90;;;;;;5041759;28;20449;-91
2022/01/24 07:43:55;;;;;;;71.97;28.25;;;4.40;99.90;;;;;;5057624;28;19916;-90
2022/01/24 07:46:23;;;;;;;75.47;28.88;;;5.40;99.90;;;;;;5043387;28;20059;-90
2022/01/24 07:48:50;;;;;;;57.08;22.73;;;4.80;99.90;;;;;;5058999;28;20047;-90
2022/01/24 07:51:15;;;;;;;71.20;26.90;;;5.40;99.90;;;;;;5057990;28;20044;-90
2022/01/24 07:53:43;;;;;;;70.95;27.33;;;5.20;99.90;;;;;;5058114;28;20040;-90
2022/01/24 07:56:09;;;;;;;76.38;29.35;;;4.50;99.90;;;;;;5040718;28;20044;-90
2022/01/24 07:58:35;;;;;;;70.35;27.58;;;5.30;99.90;;;;;;5041308;28;20067;-90
2022/01/24 08:01:01;;;;;;;78.30;29.27;;;4.80;99.90;;;;;;5040184;28;20391;-90
2022/01/24 08:03:29;;;;;;;66.57;28.58;;;4.40;99.90;;;;;;5057702;28;20040;-90
2022/01/24 08:05:55;;;;;;;71.40;27.35;;;4.70;99.90;;;;;;5056911;28;20040;-91
2022/01/24 08:08:21;;;;;;;70.93;28.00;;;5.50;99.90;;;;;;5057674;28;20036;-90
2022/01/24 08:10:47;;;;;;;77.20;32.38;;;5.30;99.90;;;;;;5038242;28;20098;-90
2022/01/24 08:13:13;;;;;;;69.38;29.17;;;4.50;99.90;;;;;;5040442;28;20422;-90
2022/01/24 08:15:39;;;;;;;69.47;30.15;;;4.50;99.90;;;;;;5040098;28;20090;-90
2022/01/24 08:18:05;;;;;;;66.75;29.75;;;4.50;99.90;;;;;;5057431;28;20033;-90
2022/01/24 08:20:33;;;;;;;62.53;27.83;;;5.60;99.90;;;;;;5042920;28;20040;-90
2022/01/24 08:23:00;;;;;;;73.70;29.92;;;4.50;99.90;;;;;;5047024;28;20115;-91
2022/01/24 08:25:28;;;;;;;;;;;4.50;99.90;;;;;;5063136;28;20036;-90
2022/01/24 08:27:54;;;;;;;67.03;29.15;;;4.50;99.90;;;;;;5051718;28;19960;-90
2022/01/24 08:30:23;;;;;;;68.60;30.05;;;4.50;99.90;;;;;;5059356;28;20047;-89
2022/01/24 08:32:49;;;;;;;64.03;27.90;;;5.20;99.90;;;;;;5053274;28;20097;-90
2022/01/24 08:35:17;;;;;;;66.43;29.80;;;5.00;99.90;;;;;;5060324;28;20036;-90
2022/01/24 08:37:43;;;;;;;65.82;28.05;;;5.50;99.90;;;;;;5053062;28;20048;-90
2022/01/24 08:40:22;;;;;;;72.57;28.42;;;4.70;99.90;;;;;;5074705;28;20036;-91
2022/01/24 08:42:56;;;;;;;62.55;26.58;;;4.60;99.90;;;;;;5085320;28;20413;-91
2022/01/24 08:48:08;;;;;;;64.47;28.73;;;5.60;99.90;;;;;;5080684;28;20078;-91
2022/01/24 08:50:35;;;;;;;62.88;28.65;;;5.50;99.90;;;;;;5066005;28;20082;-90
2022/01/24 08:53:04;;;;;;;62.50;27.20;;;5.70;99.90;;;;;;5060460;28;20041;-89
2022/01/24 08:55:31;;;;;;;65.95;29.63;;;5.30;99.90;;;;;;5081985;28;20097;-90
2022/01/24 08:57:59;;;;;;;60.78;28.27;;;4.60;99.90;;;;;;5071597;28;20078;-89
2022/01/24 09:00:25;;;;;;;59.45;28.98;;;4.70;99.90;;;;;;5051672;28;20540;-91
2022/01/24 09:02:51;;;;;;;;;;;4.70;99.90;;;;;;5068071;28;20041;-91
2022/01/24 09:05:18;;;;;;;60.47;28.73;;;4.70;99.90;;;;;;5058679;28;20011;-89
2022/01/24 09:07:46;;;;;;;50.42;25.02;;;4.70;99.90;;;;;;5039594;28;20044;-90
2022/01/24 09:10:12;;;;;;;59.50;28.48;;;4.70;99.90;;;;;;5066661;28;20424;-91
2022/01/24 09:12:38;;;;;;;60.28;28.90;;;5.30;99.90;;;;;;5056190;28;20130;-90
2022/01/24 09:15:05;;;;;;;58.30;28.80;;;4.80;99.90;;;;;;5057410;28;20040;-86
2022/01/24 09:17:31;;;;;;;57.05;28.70;;;4.80;99.90;;;;;;5059236;28;20474;-85
2022/01/24 09:19:56;;;;;;;60.10;29.00;;;4.80;99.90;;;;;;5043018;28;20048;-82
2022/01/24 09:22:22;;;;;;;52.55;26.05;;;4.90;99.90;;;;;;5071488;28;20083;-77
2022/01/24 09:24:48;;;;;;;52.38;26.08;;;5.50;99.90;;;;;;5038506;28;20080;-77
2022/01/24 09:27:15;;;;;;;51.40;26.75;;;4.90;99.90;;;;;;5053698;28;20101;-79
2022/01/24 09:29:41;;;;;;;55.28;27.48;;;4.90;99.90;;;;;;5073245;28;20055;-79
2022/01/24 09:32:07;;;;;;;;;;;4.80;99.90;;;;;;5055810;28;20109;-80
2022/01/24 09:34:33;;;;;;;54.40;25.48;;;4.80;99.90;;;;;;5056588;28;19920;-80
2022/01/24 09:37:02;;;;;;;49.97;25.33;;;4.90;99.90;;;;;;5073077;28;20075;-83
2022/01/24 09:39:27;;;;;;;54.28;27.40;;;4.90;99.90;;;;;;5072902;28;20101;-80
2022/01/24 09:41:53;;;;;;;51.42;25.20;;;5.20;99.90;;;;;;5037585;28;20040;-79
2022/01/24 09:44:19;;;;;;;54.28;26.88;;;4.90;99.90;;;;;;5064203;28;20047;-79
2022/01/24 09:46:46;;;;;;;51.42;26.33;;;4.90;99.90;;;;;;5048862;28;20608;-80
2022/01/24 09:49:11;;;;;;;;;;;5.00;99.90;;;;;;5056406;28;20098;-79
2022/01/24 09:51:37;;;;;;;47.83;23.95;;;4.90;99.90;;;;;;5073203;28;20378;-78
2022/01/24 09:54:05;;;;;;;50.25;24.75;;;5.30;99.90;;;;;;5059809;28;20044;-79
2022/01/24 09:56:31;;;;;;;46.75;25.27;;;4.90;99.90;;;;;;5069412;28;20048;-79
2022/01/24 09:58:57;;;;;;;52.28;27.00;;;4.90;99.90;;;;;;5056444;28;20047;-78
2022/01/24 10:01:23;;;;;;;;;;;4.90;99.90;;;;;;5037993;28;20131;-79
2022/01/24 10:04:15;;;;;;;47.72;25.25;;;4.90;99.90;;;;;;5041049;28;20357;-79
2022/01/24 10:07:05;;;;;;;45.53;24.10;;;4.90;99.90;;;;;;5067990;28;20490;-78
2022/01/24 10:09:41;;;;;;;47.47;23.85;;;4.90;99.90;;;;;;5060283;28;20080;-80
2022/01/24 10:17:33;;;;;;;49.42;24.60;;;4.90;99.90;;;;;;5056631;28;20041;-79
2022/01/24 10:20:33;;;;;;;48.90;25.50;;;4.90;99.90;;;;;;5055736;28;20047;-79
2022/01/24 10:23:17;;;;;;;44.17;22.75;;;4.90;99.90;;;;;;5037434;28;20140;-78
2022/01/24 10:25:59;;;;;;;48.22;24.77;;;5.00;99.90;;;;;;5055848;28;20040;-79
2022/01/24 10:28:30;;;;;;;54.03;26.88;;;5.00;99.90;;;;;;5055911;28;20060;-79
2022/01/24 10:31:19;;;;;;;50.72;25.95;;;5.00;99.90;;;;;;5037800;28;20083;-78
2022/01/24 10:34:35;;;;;;;46.70;24.27;;;5.00;99.90;;;;;;5072381;28;20117;-81
2022/01/24 10:36:55;;;;;;;38.05;18.77;;;5.00;99.90;;;;;;5057996;28;20491;-90
2022/01/24 10:44:49;;;;;;;45.50;24.00;;;5.00;99.90;;;;;;5061914;28;20121;-82
2022/01/24 10:47:20;;;;;;;44.28;23.80;;;5.10;99.90;;;;;;5050939;28;20184;-82
2022/01/24 10:49:46;;;;;;;52.03;26.52;;;5.00;99.90;;;;;;5061611;28;20048;-82
2022/01/24 10:52:15;;;;;;;51.17;25.88;;;5.00;99.90;;;;;;5075184;28;20044;-82
2022/01/24 10:54:40;;;;;;;41.13;20.48;;;5.00;99.90;;;;;;5065684;28;20040;-81
2022/01/24 10:57:07;;;;;;;51.33;26.05;;;5.50;99.90;;;;;;5057518;28;20132;-82
2022/01/24 10:59:34;;;;;;;50.00;25.88;;;5.00;99.90;;;;;;5075764;28;20040;-82
2022/01/24 11:02:04;;;;;;;51.58;26.52;;;4.90;99.90;;;;;;5054771;28;20500;-82
2022/01/24 11:04:33;;;;;;;54.78;26.92;;;5.10;99.90;;;;;;5054787;28;20085;-82
2022/01/24 11:07:01;;;;;;;54.88;27.33;;;5.00;99.90;;;;;;5054973;28;20048;-81
2022/01/24 11:09:28;;;;;;;53.33;26.25;;;5.00;99.90;;;;;;5070958;28;20044;-82
2022/01/24 11:12:07;;;;;;;53.42;27.42;;;5.00;99.90;;;;;;5079291;28;20138;-82
2022/01/24 11:14:33;;;;;;;51.20;26.20;;;5.00;99.90;;;;;;5061864;28;20047;-82
2022/01/24 11:17:00;;;;;;;47.38;24.45;;;5.00;99.90;;;;;;5040745;28;20398;-80
2022/01/24 11:21:56;;;;;;;50.47;24.15;;;5.00;99.90;;;;;;5066874;28;20546;-80
2022/01/24 11:24:29;;;;;;;47.38;23.10;;;5.20;99.90;;;;;;5054741;28;20093;-80
2022/01/24 11:26:56;;;;;;;42.70;21.70;;;4.90;99.90;;;;;;5074777;28;20086;-80
2022/01/24 11:29:23;;;;;;;42.25;23.70;;;5.00;99.90;;;;;;5057014;28;20048;-80
2022/01/24 11:32:16;;;;;;;50.22;25.88;;;5.00;99.90;;;;;;5072602;28;20557;-80
2022/01/24 11:34:48;;;;;;;45.85;23.88;;;4.90;99.90;;;;;;5070485;28;20078;-80
2022/01/24 11:37:32;;;;;;;51.70;27.65;;;4.90;99.90;;;;;;5054129;28;20040;-82
2022/01/24 11:39:57;;;;;;;50.35;24.52;;;5.00;99.90;;;;;;5054194;28;20049;-81
2022/01/24 11:42:33;;;;;;;50.55;24.58;;;5.30;99.90;;;;;;5061846;28;20035;-78
2022/01/24 11:45:04;;;;;;;46.22;23.05;;;5.00;99.90;;;;;;5061006;28;20036;-80
2022/01/24 11:47:31;;;;;;;40.65;22.15;;;4.90;99.90;;;;;;5037275;28;20052;-75
2022/01/24 11:49:58;;;;;;;41.97;23.17;;;4.90;99.90;;;;;;5056363;28;20059;-85
2022/01/24 11:52:34;;;;;;;42.00;22.70;;;4.90;99.90;;;;;;5069841;28;20040;-82
2022/01/24 11:57:50;;;;;;;42.65;22.00;;;5.00;99.90;;;;;;5073768;28;20048;-82
2022/01/24 12:00:27;;;;;;;38.35;21.17;;;4.90;99.90;;;;;;5074985;28;20054;-82
2022/01/24 12:02:52;;;;;;;;;;;4.80;99.90;;;;;;5074883;28;20467;-82
2022/01/24 12:05:25;;;;;;;43.65;23.60;;;4.90;99.90;;;;;;5073491;28;19916;-82
2022/01/24 12:08:01;;;;;;;37.53;20.23;;;4.80;99.90;;;;;;5073870;28;20055;-80
2022/01/24 12:10:33;;;;;;;33.03;19.80;;;4.80;99.90;;;;;;5073354;28;20238;-81
2022/01/24 12:13:02;;;;;;;39.78;21.88;;;4.80;99.90;;;;;;5074211;28;20063;-81
2022/01/24 12:15:36;;;;;;;38.88;21.38;;;4.80;99.90;;;;;;5071018;28;20893;-81
2022/01/24 12:18:12;;;;;;;41.03;22.35;;;4.80;99.90;;;;;;5070905;28;21345;-81
2022/01/24 12:20:40;;;;;;;34.25;19.92;;;4.90;99.90;;;;;;5069856;28;20039;-81
2022/01/24 12:23:25;;;;;;;32.75;18.48;;;4.90;99.90;;;;;;5072585;28;20045;-81
2022/01/24 12:26:03;;;;;;;33.83;18.80;;;4.90;99.90;;;;;;5053172;28;20044;-81
2022/01/24 12:28:30;;;;;;;33.58;18.65;;;4.90;99.90;;;;;;5053228;28;20048;-80
2022/01/24 12:31:13;;;;;;;30.52;16.85;;;5.30;99.90;;;;;;5050745;28;20063;-80
2022/01/24 12:33:50;;;;;;;33.30;18.33;;;4.90;99.90;;;;;;5053350;28;20040;-81
2022/01/24 12:36:36;;;;;;;31.23;17.58;;;4.90;99.90;;;;;;5060148;28;20425;-81
2022/01/24 12:39:09;;;;;;;34.65;17.92;;;4.90;99.90;;;;;;5072579;28;20043;-82
2022/01/24 12:41:39;;;;;;;31.08;15.45;;;4.90;99.90;;;;;;5061538;28;20048;-82
2022/01/24 12:46:33;;;;;;;30.67;16.73;;;4.90;99.90;;;;;;5071391;28;20043;-80
2022/01/24 12:49:04;;;;;;;30.05;17.50;;;4.80;99.90;;;;;;5056212;28;20043;-79
2022/01/24 12:51:33;;;;;;;29.65;16.13;;;4.90;99.90;;;;;;5055636;28;20137;-79
2022/01/24 12:54:02;;;;;;;28.52;16.60;;;4.90;99.90;;;;;;5056598;28;20085;-80
2022/01/24 12:56:29;;;;;;;29.83;17.15;;;4.90;99.90;;;;;;5072344;28;20482;-79
2022/01/24 12:58:56;;;;;;;30.73;18.23;;;5.50;99.90;;;;;;5057282;28;20063;-80
2022/01/24 13:01:29;;;;;;;28.75;17.58;;;4.80;99.90;;;;;;5038337;28;20052;-80
2022/01/24 13:04:00;;;;;;;32.03;18.13;;;4.80;99.90;;;;;;5047692;28;20047;-80
2022/01/24 13:06:28;;;;;;;33.58;20.55;;;4.80;99.90;;;;;;5052593;28;20082;-79
2022/01/24 13:08:56;;;;;;;34.78;19.55;;;4.80;99.90;;;;;;5063023;28;20498;-79
2022/01/24 13:11:22;;;;;;;35.65;20.27;;;4.80;99.90;;;;;;5071478;28;20520;-79
2022/01/24 13:14:31;;;;;;;40.20;23.33;;;5.30;99.90;;;;;;5051182;28;20043;-81
2022/01/24 13:25:08;;;;;;;36.17;21.45;;;4.80;99.90;;;;;;5055987;28;20375;-82
2022/01/24 13:27:48;;;;;;;35.83;20.92;;;4.80;99.90;;;;;;5055767;28;20150;-82
2022/01/24 13:30:42;;;;;;;33.88;20.60;;;4.70;99.90;;;;;;5053998;28;20164;-82
2022/01/24 13:33:11;;;;;;;35.75;21.13;;;4.80;99.90;;;;;;5069215;28;20056;-81
2022/01/24 13:35:40;;;;;;;36.85;20.95;;;4.80;99.90;;;;;;5039035;28;20044;-80
2022/01/24 13:38:08;;;;;;;35.85;21.52;;;4.80;99.90;;;;;;5072928;28;20043;-80
2022/01/24 13:43:47;;;;;;;31.40;18.70;;;4.70;99.90;;;;;;5072456;28;20056;-81
2022/01/24 13:46:20;;;;;;;38.33;20.83;;;4.70;99.90;;;;;;5071107;28;20040;-80
2022/01/24 13:49:08;;;;;;;38.55;21.30;;;4.70;99.90;;;;;;5055922;28;20047;-80
2022/01/24 13:51:46;;;;;;;34.92;21.63;;;4.70;99.90;;;;;;5075202;28;20135;-86
2022/01/24 13:54:17;;;;;;;32.95;20.00;;;4.90;99.90;;;;;;5073073;28;20044;-87
2022/01/24 13:56:49;;;;;;;32.15;20.02;;;5.50;99.90;;;;;;5057288;28;20122;-86
2022/01/24 13:59:25;;;;;;;36.40;22.63;;;4.60;99.90;;;;;;5045675;28;20123;-87
2022/01/24 14:01:55;;;;;;;34.60;21.58;;;4.60;99.90;;;;;;5069850;28;20142;-87
2022/01/24 14:04:34;;;;;;;37.78;21.73;;;4.60;99.90;;;;;;5052870;28;20041;-87
2022/01/24 14:07:06;;;;;;;35.53;20.88;;;4.70;99.90;;;;;;5088030;28;20035;-87
2022/01/24 14:10:03;;;;;;;35.28;21.20;;;4.70;99.90;;;;;;5053980;28;20035;-87
2022/01/24 14:12:49;;;;;;;35.13;20.23;;;4.70;99.90;;;;;;5070185;28;20048;-87
2022/01/24 14:20:54;;;;;;;28.95;18.08;;;4.70;99.90;;;;;;5081583;28;20039;-87
2022/01/24 14:23:37;;;;;;;30.50;17.63;;;4.70;99.90;;;;;;5065883;28;20048;-87
2022/01/24 14:26:24;;;;;;;30.00;17.15;;;4.70;99.90;;;;;;5064588;28;20064;-88
2022/01/24 14:29:04;;;;;;;30.67;17.85;;;4.70;99.90;;;;;;5076445;28;20071;-87
2022/01/24 14:31:31;;;;;;;33.58;18.95;;;5.00;99.90;;;;;;5060785;28;20774;-88
2022/01/24 14:34:02;;;;;;;35.17;20.52;;;5.70;99.90;;;;;;5090716;28;20717;-87
2022/01/24 14:36:27;;;;;;;35.70;20.70;;;4.70;99.90;;;;;;5085225;28;20036;-88
2022/01/24 14:39:08;;;;;;;34.78;20.70;;;4.70;99.90;;;;;;5057124;28;20271;-87
2022/01/24 14:41:40;;;;;;;35.67;20.92;;;4.60;99.90;;;;;;5089313;28;20032;-88
2022/01/24 14:46:54;;;;;;;33.78;20.63;;;4.70;99.90;;;;;;5050694;28;20143;-87
2022/01/24 14:49:26;;;;;;;32.35;18.95;;;5.40;99.90;;;;;;5058942;28;20074;-86
2022/01/24 14:51:57;;;;;;;35.47;19.92;;;5.10;99.90;;;;;;5043013;28;20087;-86
2022/01/24 14:54:25;;;;;;;36.03;20.63;;;4.60;99.90;;;;;;5065719;28;20047;-87
2022/01/24 14:56:53;;;;;;;40.00;21.02;;;4.60;99.90;;;;;;5039339;28;20044;-87
2022/01/24 14:59:21;;;;;;;37.45;20.20;;;5.10;99.90;;;;;;5022594;28;20044;-87
2022/01/24 15:01:47;;;;;;;37.85;21.10;;;4.90;99.90;;;;;;5037408;28;20215;-86
2022/01/24 15:04:13;;;;;;;34.53;19.35;;;4.80;99.90;;;;;;5055652;28;20033;-87
2022/01/24 15:06:39;;;;;;;38.25;21.05;;;5.50;99.90;;;;;;5054971;28;20037;-87
2022/01/24 15:09:27;;;;;;;37.58;20.67;;;4.50;99.90;;;;;;5022223;28;20391;-87
2022/01/24 15:11:55;;;;;;;41.47;21.40;;;4.60;99.90;;;;;;5038587;28;20044;-86
2022/01/24 15:14:35;;;;;;;40.65;23.85;;;4.60;99.90;;;;;;5056346;28;20468;-89
2022/01/24 15:27:48;;;;;;;39.53;22.65;;;4.50;99.90;;;;;;5056766;28;20044;-85